createdAt,value
2018-12-29T00:00:37.860Z,6.50
2018-12-29T00:03:06.899Z,6.50
2018-12-29T00:05:36.021Z,6.50
2018-12-29T00:08:05.121Z,6.50
2018-12-29T00:10:34.357Z,6.50
2018-12-29T00:13:03.544Z,6.50
2018-12-29T00:15:32.547Z,6.50
2018-12-29T00:18:01.871Z,6.60
2018-12-29T00:20:31.005Z,6.60
2018-12-29T00:23:00.190Z,6.60
2018-12-29T00:25:29.252Z,6.60
2018-12-29T00:28:01.109Z,6.60
2018-12-29T00:30:30.129Z,6.60
2018-12-29T00:32:59.328Z,6.60
2018-12-29T00:35:28.427Z,6.60
2018-12-29T00:37:57.723Z,6.60
2018-12-29T00:40:26.813Z,6.60
2018-12-29T00:42:55.865Z,6.60
2018-12-29T00:45:24.961Z,6.60
2018-12-29T00:47:54.022Z,6.60
2018-12-29T00:50:23.108Z,6.60
2018-12-29T00:52:52.281Z,6.60
2018-12-29T00:55:21.210Z,6.60
2018-12-29T00:57:50.226Z,6.60
2018-12-29T01:00:19.344Z,6.60
2018-12-29T01:02:48.472Z,6.60
2018-12-29T01:05:17.570Z,6.60
2018-12-29T01:07:46.587Z,6.70
2018-12-29T01:10:15.594Z,6.70
2018-12-29T01:12:44.613Z,6.70
2018-12-29T01:15:13.704Z,6.70
2018-12-29T01:17:42.808Z,6.70
2018-12-29T01:20:12.069Z,6.70
2018-12-29T01:22:41.216Z,6.70
2018-12-29T01:25:10.356Z,6.70
2018-12-29T01:27:43.791Z,6.70
2018-12-29T01:30:12.734Z,6.70
2018-12-29T01:32:41.988Z,6.70
2018-12-29T01:35:11.168Z,6.70
2018-12-29T01:37:40.166Z,6.70
2018-12-29T01:40:09.284Z,6.70
2018-12-29T01:42:38.371Z,6.70
2018-12-29T01:45:07.886Z,6.70
2018-12-29T01:47:37.060Z,6.70
2018-12-29T01:50:06.159Z,6.80
2018-12-29T01:52:35.155Z,6.70
2018-12-29T01:55:04.291Z,6.80
2018-12-29T01:57:33.333Z,6.80
2018-12-29T02:00:02.376Z,6.70
2018-12-29T02:02:31.541Z,6.80
2018-12-29T02:05:00.699Z,6.80
2018-12-29T02:07:29.847Z,6.80
2018-12-29T02:09:59.072Z,6.80
2018-12-29T02:12:28.204Z,6.80
2018-12-29T02:14:57.348Z,6.80
2018-12-29T02:17:26.532Z,6.80
2018-12-29T02:19:55.749Z,6.80
2018-12-29T02:22:25.024Z,6.80
2018-12-29T02:24:54.175Z,6.80
2018-12-29T02:27:23.341Z,6.90
2018-12-29T02:29:52.455Z,6.80
2018-12-29T02:32:21.543Z,6.80
2018-12-29T02:34:50.526Z,6.80
2018-12-29T02:37:19.555Z,6.90
2018-12-29T02:39:48.687Z,6.90
2018-12-29T02:42:17.688Z,6.90
2018-12-29T02:44:46.714Z,6.90
2018-12-29T02:47:15.776Z,6.90
2018-12-29T02:49:44.821Z,6.90
2018-12-29T02:52:14.003Z,7.00
2018-12-29T02:54:45.171Z,7.00
2018-12-29T02:57:14.293Z,6.90
2018-12-29T02:59:43.317Z,6.90
2018-12-29T03:02:12.525Z,7.00
2018-12-29T03:04:41.465Z,7.00
2018-12-29T03:07:10.436Z,7.00
2018-12-29T03:09:41.188Z,7.00
2018-12-29T03:12:10.202Z,7.00
2018-12-29T03:14:39.326Z,7.00
2018-12-29T03:17:08.293Z,7.00
2018-12-29T03:19:37.448Z,7.00
2018-12-29T03:22:06.615Z,7.00
2018-12-29T03:24:35.765Z,7.00
2018-12-29T03:27:04.767Z,7.00
2018-12-29T03:29:33.800Z,7.00
2018-12-29T03:32:02.816Z,7.10
2018-12-29T03:34:31.906Z,7.00
2018-12-29T03:37:00.952Z,7.10
2018-12-29T03:39:30.036Z,7.10
2018-12-29T03:41:59.129Z,7.10
2018-12-29T03:44:28.199Z,7.10
2018-12-29T03:46:57.082Z,7.10
2018-12-29T03:49:26.030Z,7.20
2018-12-29T03:51:55.230Z,7.10
2018-12-29T03:54:27.007Z,7.10
2018-12-29T03:56:56.076Z,7.10
2018-12-29T03:59:25.127Z,7.10
2018-12-29T04:01:54.352Z,7.10
2018-12-29T04:04:23.380Z,7.10
2018-12-29T04:06:52.361Z,7.10
2018-12-29T04:09:34.700Z,7.20
2018-12-29T04:12:06.636Z,7.20
2018-12-29T04:14:36.177Z,7.20
2018-12-29T04:17:05.381Z,7.20
2018-12-29T04:19:34.451Z,7.20
2018-12-29T04:22:03.573Z,7.20
2018-12-29T04:24:32.596Z,7.20
2018-12-29T04:27:01.678Z,7.20
2018-12-29T04:29:30.787Z,7.20
2018-12-29T04:31:59.897Z,7.20
2018-12-29T04:34:28.984Z,7.20
2018-12-29T04:36:58.033Z,7.20
2018-12-29T04:39:27.152Z,7.20
2018-12-29T04:41:56.223Z,7.20
2018-12-29T04:44:25.246Z,7.20
2018-12-29T04:46:54.228Z,7.20
2018-12-29T04:49:23.308Z,7.20
2018-12-29T04:51:52.353Z,7.20
2018-12-29T04:54:21.417Z,7.20
2018-12-29T04:56:50.435Z,7.20
2018-12-29T04:59:19.389Z,7.30
2018-12-29T05:01:48.435Z,7.30
2018-12-29T05:04:17.520Z,7.30
2018-12-29T05:06:46.472Z,7.30
2018-12-29T05:09:15.574Z,7.30
2018-12-29T05:11:44.696Z,7.30
2018-12-29T05:14:13.823Z,7.30
2018-12-29T05:16:42.947Z,7.40
2018-12-29T05:19:11.992Z,7.40
2018-12-29T05:21:41.008Z,7.40
2018-12-29T05:24:10.031Z,7.30
2018-12-29T05:26:39.143Z,7.30
2018-12-29T05:29:08.270Z,7.30
2018-12-29T05:31:37.408Z,7.30
2018-12-29T05:34:06.469Z,7.40
2018-12-29T05:36:35.737Z,7.40
2018-12-29T05:39:06.265Z,7.40
2018-12-29T05:41:35.368Z,7.40
2018-12-29T05:44:04.488Z,7.40
2018-12-29T05:46:33.602Z,7.40
2018-12-29T05:49:02.684Z,7.40
2018-12-29T05:51:31.808Z,7.40
2018-12-29T05:54:00.795Z,7.40
2018-12-29T05:56:29.836Z,7.40
2018-12-29T05:58:58.947Z,7.40
2018-12-29T06:01:28.015Z,7.40
2018-12-29T06:03:57.195Z,7.40
2018-12-29T06:06:26.275Z,7.40
2018-12-29T06:08:55.359Z,7.40
2018-12-29T06:11:24.425Z,7.40
2018-12-29T06:13:53.494Z,7.40
2018-12-29T06:16:27.708Z,7.40
2018-12-29T06:18:54.764Z,7.40
2018-12-29T06:21:23.852Z,7.50
2018-12-29T06:23:52.959Z,7.40
2018-12-29T06:26:22.012Z,7.50
2018-12-29T06:28:51.401Z,7.50
2018-12-29T06:31:20.606Z,7.50
2018-12-29T06:33:49.674Z,7.60
2018-12-29T06:36:18.985Z,7.60
2018-12-29T06:38:48.023Z,7.60
2018-12-29T06:41:17.108Z,7.60
2018-12-29T06:43:46.132Z,7.60
2018-12-29T06:46:15.469Z,7.60
2018-12-29T06:48:44.425Z,7.60
2018-12-29T06:51:13.398Z,7.60
2018-12-29T06:53:42.521Z,7.60
2018-12-29T06:56:11.452Z,7.60
2018-12-29T06:58:40.476Z,7.60
2018-12-29T07:01:09.615Z,7.60
2018-12-29T07:03:38.693Z,7.60
2018-12-29T07:06:07.710Z,7.60
2018-12-29T07:08:36.691Z,7.70
2018-12-29T07:11:05.767Z,7.60
2018-12-29T07:13:34.680Z,7.70
2018-12-29T07:16:03.928Z,7.70
2018-12-29T07:18:35.160Z,7.60
2018-12-29T07:21:04.269Z,7.60
2018-12-29T07:23:33.272Z,7.50
2018-12-29T07:26:02.434Z,7.50
2018-12-29T07:28:31.908Z,7.40
2018-12-29T07:31:00.874Z,7.40
2018-12-29T07:33:30.001Z,7.30
2018-12-29T07:35:59.023Z,7.30
2018-12-29T07:38:27.927Z,7.30
2018-12-29T07:40:56.927Z,7.30
2018-12-29T07:43:25.943Z,7.30
2018-12-29T07:46:00.836Z,7.30
2018-12-29T07:48:29.883Z,7.30
2018-12-29T07:50:58.999Z,7.20
2018-12-29T07:53:28.154Z,7.20
2018-12-29T07:55:57.171Z,7.20
2018-12-29T07:58:26.313Z,7.30
2018-12-29T08:00:58.135Z,7.20
2018-12-29T08:03:27.402Z,7.30
2018-12-29T08:05:56.464Z,7.30
2018-12-29T08:08:25.560Z,7.30
2018-12-29T08:10:54.768Z,7.30
2018-12-29T08:13:23.673Z,7.30
2018-12-29T08:15:52.821Z,7.30
2018-12-29T08:18:21.804Z,7.30
2018-12-29T08:20:50.835Z,7.30
2018-12-29T08:23:20.109Z,7.40
2018-12-29T08:25:49.167Z,7.40
2018-12-29T08:28:18.281Z,7.40
2018-12-29T08:30:47.318Z,7.40
2018-12-29T08:33:17.536Z,7.40
2018-12-29T08:35:46.700Z,7.40
2018-12-29T08:38:15.786Z,7.50
2018-12-29T08:40:44.894Z,7.40
2018-12-29T08:43:14.063Z,7.50
2018-12-29T08:45:44.322Z,7.50
2018-12-29T08:48:13.482Z,7.50
2018-12-29T08:50:42.497Z,7.50
2018-12-29T08:53:11.657Z,7.50
2018-12-29T08:55:41.529Z,7.50
2018-12-29T08:58:10.655Z,7.60
2018-12-29T09:00:41.743Z,7.60
2018-12-29T09:03:10.702Z,7.60
2018-12-29T09:05:39.896Z,7.70
2018-12-29T09:08:09.053Z,7.70
2018-12-29T09:10:38.329Z,7.70
2018-12-29T09:13:07.529Z,7.70
2018-12-29T09:15:36.558Z,7.70
2018-12-29T09:18:06.141Z,7.80
2018-12-29T09:20:35.183Z,7.80
2018-12-29T09:23:04.344Z,7.90
2018-12-29T09:25:33.422Z,7.90
2018-12-29T09:28:10.931Z,7.90
2018-12-29T09:30:40.161Z,7.90
2018-12-29T09:33:09.272Z,7.90
2018-12-29T09:35:38.351Z,7.90
2018-12-29T09:38:07.514Z,8.00
2018-12-29T09:40:36.651Z,8.00
2018-12-29T09:43:05.646Z,8.00
2018-12-29T09:45:37.430Z,8.00
2018-12-29T09:48:06.536Z,8.10
2018-12-29T09:50:35.672Z,8.00
2018-12-29T09:53:04.739Z,8.10
2018-12-29T09:55:33.813Z,8.10
2018-12-29T09:58:03.343Z,8.10
2018-12-29T10:00:35.817Z,8.10
2018-12-29T10:03:06.254Z,8.20
2018-12-29T10:05:35.329Z,8.20
2018-12-29T10:08:04.447Z,8.20
2018-12-29T10:10:33.636Z,8.20
2018-12-29T10:13:02.760Z,8.30
2018-12-29T10:15:31.915Z,8.30
2018-12-29T10:18:01.252Z,8.30
2018-12-29T10:20:30.404Z,8.30
2018-12-29T10:22:59.789Z,8.30
2018-12-29T10:25:28.691Z,8.30
2018-12-29T10:28:03.153Z,8.30
2018-12-29T10:30:32.210Z,8.30
2018-12-29T10:33:01.445Z,8.30
2018-12-29T10:35:30.417Z,8.30
2018-12-29T10:37:59.824Z,8.30
2018-12-29T10:40:29.125Z,8.30
2018-12-29T10:42:58.382Z,8.30
2018-12-29T10:45:46.129Z,8.30
2018-12-29T10:48:15.197Z,8.30
2018-12-29T10:50:44.394Z,8.30
2018-12-29T10:53:13.470Z,8.30
2018-12-29T10:55:43.312Z,8.30
2018-12-29T10:58:12.357Z,8.30
2018-12-29T11:00:43.305Z,8.30
2018-12-29T11:03:12.481Z,8.40
2018-12-29T11:05:41.659Z,8.40
2018-12-29T11:08:10.709Z,8.40
2018-12-29T11:10:40.069Z,8.40
2018-12-29T11:13:08.998Z,8.50
2018-12-29T11:15:38.012Z,8.50
2018-12-29T11:18:09.855Z,8.50
2018-12-29T11:20:39.123Z,8.50
2018-12-29T11:23:09.530Z,8.50
2018-12-29T11:25:38.743Z,8.40
2018-12-29T11:28:08.096Z,8.40
2018-12-29T11:30:37.213Z,8.40
2018-12-29T11:33:06.306Z,8.40
2018-12-29T11:35:35.348Z,8.40
2018-12-29T11:38:04.429Z,8.40
2018-12-29T11:40:33.722Z,8.40
2018-12-29T11:43:02.818Z,8.50
2018-12-29T11:45:51.154Z,8.50
2018-12-29T11:48:20.166Z,8.50
2018-12-29T11:50:49.264Z,8.50
2018-12-29T11:53:18.404Z,8.50
2018-12-29T11:55:47.720Z,8.50
2018-12-29T11:58:16.726Z,8.60
2018-12-29T12:00:45.722Z,8.50
2018-12-29T12:03:14.823Z,8.50
2018-12-29T12:05:44.009Z,8.50
2018-12-29T12:08:13.155Z,8.60
2018-12-29T12:10:42.346Z,8.60
2018-12-29T12:13:11.599Z,8.60
2018-12-29T12:15:40.816Z,8.60
2018-12-29T12:18:16.521Z,8.60
2018-12-29T12:20:45.653Z,8.60
2018-12-29T12:23:14.707Z,8.70
2018-12-29T12:25:43.862Z,8.70
2018-12-29T12:28:13.133Z,8.70
2018-12-29T12:30:42.212Z,8.70
2018-12-29T12:33:11.706Z,8.70
2018-12-29T12:35:40.818Z,8.70
2018-12-29T12:38:10.440Z,8.70
2018-12-29T12:40:39.518Z,8.70
2018-12-29T12:43:08.680Z,8.70
2018-12-29T12:45:39.496Z,8.70
2018-12-29T12:48:08.698Z,8.70
2018-12-29T12:50:37.766Z,8.70
2018-12-29T12:53:06.827Z,8.80
2018-12-29T12:55:36.431Z,8.80
2018-12-29T12:58:05.687Z,8.80
2018-12-29T13:00:35.085Z,8.80
2018-12-29T13:03:04.613Z,8.80
2018-12-29T13:05:33.975Z,8.80
2018-12-29T13:08:03.443Z,8.70
2018-12-29T13:10:33.287Z,8.70
2018-12-29T13:13:02.422Z,8.70
2018-12-29T13:15:31.508Z,8.70
2018-12-29T13:18:00.680Z,8.70
2018-12-29T13:20:30.065Z,8.70
2018-12-29T13:22:59.106Z,8.70
2018-12-29T13:25:28.204Z,8.70
2018-12-29T13:27:58.629Z,8.70
2018-12-29T13:30:27.692Z,8.70
2018-12-29T13:32:56.785Z,8.70
2018-12-29T13:35:25.828Z,8.70
2018-12-29T13:37:54.849Z,8.70
2018-12-29T13:40:23.900Z,8.70
2018-12-29T13:42:53.024Z,8.70
2018-12-29T13:45:22.318Z,8.70
2018-12-29T13:47:51.782Z,8.70
2018-12-29T13:50:21.146Z,8.80
2018-12-29T13:52:50.202Z,8.80
2018-12-29T13:55:19.664Z,8.70
2018-12-29T13:57:48.643Z,8.70
2018-12-29T14:00:18.212Z,8.70
2018-12-29T14:02:47.323Z,8.80
2018-12-29T14:05:16.386Z,8.80
2018-12-29T14:07:45.498Z,8.80
2018-12-29T14:10:14.530Z,8.90
2018-12-29T14:12:43.852Z,9.00
2018-12-29T14:15:12.992Z,9.10
2018-12-29T14:17:42.106Z,9.10
2018-12-29T14:20:11.186Z,9.10
2018-12-29T14:22:40.332Z,9.20
2018-12-29T14:25:09.491Z,9.20
2018-12-29T14:27:38.938Z,9.20
2018-12-29T14:30:08.437Z,9.20
2018-12-29T14:32:37.608Z,9.30
2018-12-29T14:35:06.800Z,9.30
2018-12-29T14:37:35.974Z,9.30
2018-12-29T14:40:05.120Z,9.30
2018-12-29T14:42:34.394Z,9.30
2018-12-29T14:45:03.465Z,9.30
2018-12-29T14:47:32.579Z,9.30
2018-12-29T14:50:01.676Z,9.40
2018-12-29T14:52:30.764Z,9.40
2018-12-29T14:55:03.116Z,9.40
2018-12-29T14:57:32.309Z,9.40
2018-12-29T15:00:01.482Z,9.50
2018-12-29T15:02:30.705Z,9.50
2018-12-29T15:05:00.171Z,9.50
2018-12-29T15:07:29.268Z,9.50
2018-12-29T15:10:01.052Z,9.60
2018-12-29T15:12:30.085Z,9.50
2018-12-29T15:14:59.579Z,9.50
2018-12-29T15:17:28.721Z,9.60
2018-12-29T15:19:57.851Z,9.60
2018-12-29T15:22:26.979Z,9.60
2018-12-29T15:24:56.228Z,9.60
2018-12-29T15:27:25.303Z,9.60
2018-12-29T15:29:54.436Z,9.70
2018-12-29T15:32:23.545Z,9.60
2018-12-29T15:34:52.661Z,9.70
2018-12-29T15:37:21.828Z,9.70
2018-12-29T15:39:51.049Z,9.70
2018-12-29T15:42:20.330Z,9.70
2018-12-29T15:44:49.416Z,9.80
2018-12-29T15:47:18.550Z,9.80
2018-12-29T15:49:48.062Z,9.80
2018-12-29T15:52:17.174Z,9.80
2018-12-29T15:54:49.019Z,9.80
2018-12-29T15:57:18.167Z,9.80
2018-12-29T15:59:47.575Z,9.90
2018-12-29T16:02:16.811Z,9.90
2018-12-29T16:04:45.943Z,9.90
2018-12-29T16:07:15.291Z,9.90
2018-12-29T16:09:44.871Z,10.00
2018-12-29T16:12:14.941Z,10.00
2018-12-29T16:14:45.819Z,10.00
2018-12-29T16:17:15.126Z,10.00
2018-12-29T16:19:44.440Z,10.00
2018-12-29T16:22:13.642Z,10.10
2018-12-29T16:24:42.793Z,10.10
2018-12-29T16:27:12.249Z,10.20
2018-12-29T16:29:41.400Z,10.20
2018-12-29T16:32:13.588Z,10.30
2018-12-29T16:34:42.735Z,10.30
2018-12-29T16:37:11.835Z,10.30
2018-12-29T16:39:41.231Z,10.30
2018-12-29T16:42:10.446Z,10.40
2018-12-29T16:44:39.591Z,10.40
2018-12-29T16:47:08.955Z,10.40
2018-12-29T16:49:38.624Z,10.30
2018-12-29T16:52:08.063Z,10.30
2018-12-29T16:54:38.335Z,10.20
2018-12-29T16:57:07.663Z,10.30
2018-12-29T16:59:37.189Z,10.30
2018-12-29T17:02:06.627Z,10.40
2018-12-29T17:04:38.286Z,10.40
2018-12-29T17:07:07.503Z,10.50
2018-12-29T17:09:37.150Z,10.50
2018-12-29T17:12:06.507Z,10.50
2018-12-29T17:14:35.731Z,10.60
2018-12-29T17:17:04.915Z,10.60
2018-12-29T17:19:34.471Z,10.70
2018-12-29T17:22:03.670Z,10.70
2018-12-29T17:24:32.803Z,10.90
2018-12-29T17:27:02.234Z,10.90
2018-12-29T17:29:31.468Z,11.00
2018-12-29T17:32:00.630Z,11.00
2018-12-29T17:34:29.752Z,11.10
2018-12-29T17:36:59.384Z,11.10
2018-12-29T17:39:28.438Z,11.10
2018-12-29T17:41:57.557Z,11.20
2018-12-29T17:44:26.670Z,11.20
2018-12-29T17:46:55.765Z,11.20
2018-12-29T17:49:25.180Z,11.20
2018-12-29T17:51:54.595Z,11.20
2018-12-29T17:54:27.030Z,11.40
2018-12-29T17:56:56.143Z,11.40
2018-12-29T17:59:25.642Z,11.30
2018-12-29T18:01:55.268Z,11.20
2018-12-29T18:04:24.433Z,11.10
2018-12-29T18:06:53.532Z,11.10
2018-12-29T18:09:24.808Z,11.10
2018-12-29T18:11:54.323Z,11.10
2018-12-29T18:14:23.683Z,11.10
2018-12-29T18:16:52.824Z,11.10
2018-12-29T18:19:22.260Z,11.00
2018-12-29T18:21:51.387Z,11.00
2018-12-29T18:24:20.434Z,10.90
2018-12-29T18:26:49.734Z,10.90
2018-12-29T18:29:18.920Z,10.90
2018-12-29T18:31:48.060Z,10.90
2018-12-29T18:34:17.167Z,10.80
2018-12-29T18:36:47.483Z,10.90
2018-12-29T18:39:16.730Z,10.80
2018-12-29T18:41:45.829Z,10.70
2018-12-29T18:44:15.305Z,10.70
2018-12-29T18:46:44.449Z,10.80
2018-12-29T18:49:13.634Z,10.80
2018-12-29T18:51:42.867Z,10.60
2018-12-29T18:54:15.126Z,10.60
2018-12-29T18:56:47.090Z,10.60
2018-12-29T18:59:16.097Z,10.60
2018-12-29T19:01:45.192Z,10.60
2018-12-29T19:04:14.411Z,10.60
2018-12-29T19:06:43.577Z,10.50
2018-12-29T19:09:13.051Z,10.50
2018-12-29T19:11:42.234Z,10.50
2018-12-29T19:14:11.575Z,10.50
2018-12-29T19:16:40.537Z,10.50
2018-12-29T19:19:28.624Z,10.40
2018-12-29T19:21:57.874Z,10.50
2018-12-29T19:24:26.945Z,10.50
2018-12-29T19:26:56.096Z,10.40
2018-12-29T19:29:25.182Z,10.40
2018-12-29T19:31:54.706Z,10.40
2018-12-29T19:34:24.225Z,10.40
2018-12-29T19:36:54.582Z,10.40
2018-12-29T19:39:23.802Z,10.40
2018-12-29T19:41:55.119Z,10.40
2018-12-29T19:44:23.701Z,10.40
2018-12-29T19:46:53.130Z,10.30
2018-12-29T19:49:22.317Z,10.30
2018-12-29T19:51:51.603Z,10.30
2018-12-29T19:54:21.390Z,10.30
2018-12-29T19:56:50.857Z,10.30
2018-12-29T19:59:20.287Z,10.30
2018-12-29T20:02:00.619Z,10.30
2018-12-29T20:04:29.706Z,10.30
2018-12-29T20:06:59.221Z,10.20
2018-12-29T20:09:28.293Z,10.20
2018-12-29T20:11:57.775Z,10.20
2018-12-29T20:14:26.986Z,10.20
2018-12-29T20:16:56.238Z,10.20
2018-12-29T20:19:25.351Z,10.10
2018-12-29T20:21:54.392Z,10.20
2018-12-29T20:24:23.553Z,10.20
2018-12-29T20:26:52.632Z,10.20
2018-12-29T20:29:21.854Z,10.10
2018-12-29T20:31:50.970Z,10.10
2018-12-29T20:34:20.077Z,10.10
2018-12-29T20:36:49.821Z,9.90
2018-12-29T20:39:18.837Z,10.00
2018-12-29T20:41:47.906Z,9.90
2018-12-29T20:44:17.006Z,9.90
2018-12-29T20:46:46.206Z,10.00
2018-12-29T20:49:15.672Z,9.90
2018-12-29T20:51:44.804Z,9.80
2018-12-29T20:54:20.035Z,9.70
2018-12-29T20:56:49.222Z,9.70
2018-12-29T20:59:18.314Z,9.70
2018-12-29T21:01:47.586Z,9.70
2018-12-29T21:04:16.768Z,9.70
2018-12-29T21:06:45.872Z,9.70
2018-12-29T21:09:21.186Z,9.70
2018-12-29T21:11:50.504Z,9.80
2018-12-29T21:14:19.790Z,9.80
2018-12-29T21:16:48.796Z,9.70
2018-12-29T21:19:17.886Z,9.70
2018-12-29T21:21:47.089Z,9.60
2018-12-29T21:24:16.168Z,9.50
2018-12-29T21:26:45.607Z,9.50
2018-12-29T21:29:14.769Z,9.50
2018-12-29T21:31:43.901Z,9.50
2018-12-29T21:34:12.988Z,9.50
2018-12-29T21:36:42.524Z,9.50
2018-12-29T21:39:11.687Z,9.50
2018-12-29T21:41:40.895Z,9.50
2018-12-29T21:44:10.029Z,9.50
2018-12-29T21:46:39.162Z,9.50
2018-12-29T21:49:08.365Z,9.50
2018-12-29T21:51:37.626Z,9.50
2018-12-29T21:54:08.948Z,9.40
2018-12-29T21:56:38.110Z,9.40
2018-12-29T21:59:07.246Z,9.50
2018-12-29T22:01:36.405Z,9.50
2018-12-29T22:04:05.461Z,9.50
2018-12-29T22:06:34.732Z,9.50
2018-12-29T22:09:05.201Z,9.50
2018-12-29T22:11:34.467Z,9.40
2018-12-29T22:14:03.615Z,9.40
2018-12-29T22:16:32.664Z,9.50
2018-12-29T22:19:02.222Z,9.50
2018-12-29T22:21:31.215Z,9.50
2018-12-29T22:24:00.441Z,9.50
2018-12-29T22:26:29.512Z,9.50
2018-12-29T22:28:58.712Z,9.50
2018-12-29T22:31:27.783Z,9.50
2018-12-29T22:33:56.937Z,9.50
2018-12-29T22:36:27.832Z,9.50
2018-12-29T22:38:56.921Z,9.50
2018-12-29T22:41:26.148Z,9.60
2018-12-29T22:43:55.306Z,9.60
2018-12-29T22:46:24.449Z,9.50
2018-12-29T22:48:53.601Z,9.50
2018-12-29T22:51:22.767Z,9.50
2018-12-29T22:53:51.964Z,9.50
2018-12-29T22:56:21.015Z,9.50
2018-12-29T22:58:50.153Z,9.40
2018-12-29T23:01:19.381Z,9.50
2018-12-29T23:03:48.637Z,9.50
2018-12-29T23:06:17.691Z,9.40
2018-12-29T23:08:47.044Z,9.50
2018-12-29T23:11:16.193Z,9.40
2018-12-29T23:13:45.251Z,9.50
2018-12-29T23:16:14.380Z,9.50
2018-12-29T23:18:47.903Z,9.50
2018-12-29T23:21:17.148Z,9.50
2018-12-29T23:23:46.232Z,9.50
2018-12-29T23:26:15.384Z,9.50
2018-12-29T23:28:44.305Z,9.50
2018-12-29T23:31:13.454Z,9.50
2018-12-29T23:33:42.669Z,9.50
2018-12-29T23:36:12.374Z,9.50
2018-12-29T23:38:41.546Z,9.40
2018-12-29T23:41:10.783Z,9.50
2018-12-29T23:43:40.179Z,9.40
2018-12-29T23:46:09.217Z,9.40
2018-12-29T23:48:38.438Z,9.60
2018-12-29T23:51:07.597Z,9.50
2018-12-29T23:53:36.916Z,9.50
2018-12-29T23:56:06.373Z,9.50
2018-12-29T23:58:35.453Z,9.40
